Reepham, United Kingdom
Current Conditions -  °F | °C
As of 10:50 PM on Friday 28 Nov 2014 (Local Time) from EGXW Reporting Station
Haze Haze  
Wind Chill: 45°   Ceiling: 9000
Heat Index: 48°   Visibility: 2.8mi
Dew Point: 48°   Wind: 7mph
Humidity: 100%   Direction: 50°NE
Pressure: 29.8"   Gusts: NA
Location:  53.23°N, 0.43°W
Report Text: EGXW 282250Z 05006KT 4500 BR FEW007 BKN090 09/09 Q1009 GRN
Loading
Personal Weather Stations






























Interactive Weather Map New forecast layout! Learn more

10-Day Weather Forecast

Advertisements
Track Severe Weather on mobile